Time,TemperatureF,DewpointF,PressureIn,WindDirection,WindDirectionDegrees,WindSpeedMPH,WindSpeedGustMPH,Humidity,HourlyPrecipIn,Conditions,Clouds,dailyrainin,SolarRadiationWatts/m^2,SoftwareType,DateUTC
2013-02-13 00:22:00,9.0,4.0,-100.00,West,262,14.0,22.0,78,0.00,,,0.00,0.000000,,2013-02-13 07:22:00,
2013-02-13 00:32:00,9.0,4.0,-100.00,West,262,14.0,22.0,78,0.00,,,0.00,0.000000,,2013-02-13 07:32:00,
2013-02-13 00:42:00,9.0,4.0,-100.00,West,262,14.0,22.0,78,0.00,,,0.00,0.000000,,2013-02-13 07:42:00,
2013-02-13 00:51:00,9.0,4.0,-100.00,West,262,14.0,22.0,78,0.00,,,0.00,0.000000,,2013-02-13 07:51:00,
2013-02-13 00:52:00,7.0,2.0,-100.00,SW,215,7.0,21.0,81,0.00,,,0.00,0.000000,,2013-02-13 07:52:00,
2013-02-13 01:11:00,7.0,2.0,-100.00,SW,215,7.0,21.0,81,0.00,,,0.00,0.000000,,2013-02-13 08:11:00,
2013-02-13 01:21:00,7.0,2.0,-100.00,SW,215,7.0,21.0,81,0.00,,,0.00,0.000000,,2013-02-13 08:21:00,
2013-02-13 01:32:00,7.0,2.0,-100.00,SW,215,7.0,21.0,81,0.00,,,0.00,0.000000,,2013-02-13 08:32:00,
2013-02-13 01:43:00,7.0,2.0,-100.00,SW,215,7.0,21.0,81,0.00,,,0.00,0.000000,,2013-02-13 08:43:00,
2013-02-13 02:11:00,9.0,5.0,-100.00,WSW,251,15.0,24.0,82,0.00,,,0.00,0.000000,,2013-02-13 09:11:00,
2013-02-13 02:21:00,9.0,5.0,-100.00,WSW,251,15.0,24.0,82,0.00,,,0.00,0.000000,,2013-02-13 09:21:00,
2013-02-13 02:31:00,9.0,5.0,-100.00,WSW,251,15.0,24.0,82,0.00,,,0.00,0.000000,,2013-02-13 09:31:00,
2013-02-13 02:42:00,9.0,5.0,-100.00,WSW,251,15.0,24.0,82,0.00,,,0.00,0.000000,,2013-02-13 09:42:00,
2013-02-13 02:51:00,9.0,5.0,-100.00,WSW,251,15.0,24.0,82,0.00,,,0.00,0.000000,,2013-02-13 09:51:00,
2013-02-13 03:11:00,10.0,5.0,-100.00,WSW,252,10.0,23.0,81,0.00,,,0.00,0.000000,,2013-02-13 10:11:00,
2013-02-13 03:21:00,10.0,5.0,-100.00,WSW,252,10.0,23.0,81,0.00,,,0.00,0.000000,,2013-02-13 10:21:00,
2013-02-13 03:32:00,10.0,5.0,-100.00,WSW,252,10.0,23.0,81,0.00,,,0.00,0.000000,,2013-02-13 10:32:00,
2013-02-13 03:42:00,10.0,5.0,-100.00,WSW,252,10.0,23.0,81,0.00,,,0.00,0.000000,,2013-02-13 10:42:00,
2013-02-13 03:51:00,10.0,5.0,-100.00,WSW,252,10.0,23.0,81,0.00,,,0.00,0.000000,,2013-02-13 10:51:00,
2013-02-13 03:52:00,10.0,5.0,-100.00,West,259,13.0,20.0,81,0.00,,,0.00,0.000000,,2013-02-13 10:52:00,
2013-02-13 04:11:00,10.0,5.0,-100.00,West,259,13.0,20.0,81,0.00,,,0.00,0.000000,,2013-02-13 11:11:00,
2013-02-13 04:22:00,10.0,5.0,-100.00,West,259,13.0,20.0,81,0.00,,,0.00,0.000000,,2013-02-13 11:22:00,
2013-02-13 04:32:00,10.0,5.0,-100.00,West,259,13.0,20.0,81,0.00,,,0.00,0.000000,,2013-02-13 11:32:00,
2013-02-13 04:42:00,10.0,5.0,-100.00,West,259,13.0,20.0,81,0.00,,,0.00,0.000000,,2013-02-13 11:42:00,
2013-02-13 04:52:00,10.0,6.0,-100.00,WSW,258,12.0,22.0,82,0.00,,,0.00,0.000000,,2013-02-13 11:52:00,
2013-02-13 05:22:00,10.0,6.0,-100.00,WSW,258,12.0,22.0,82,0.00,,,0.00,0.000000,,2013-02-13 12:22:00,
2013-02-13 05:32:00,10.0,6.0,-100.00,WSW,258,12.0,22.0,82,0.00,,,0.00,0.000000,,2013-02-13 12:32:00,
2013-02-13 05:42:00,10.0,6.0,-100.00,WSW,258,12.0,22.0,82,0.00,,,0.00,0.000000,,2013-02-13 12:42:00,
2013-02-13 06:11:00,9.0,5.0,-100.00,West,262,14.0,23.0,82,0.00,,,-99.99,0.000000,,2013-02-13 13:11:00,
2013-02-13 06:21:00,9.0,5.0,-100.00,West,262,14.0,23.0,82,0.00,,,-99.99,0.000000,,2013-02-13 13:21:00,
2013-02-13 06:32:00,9.0,5.0,-100.00,West,262,14.0,23.0,82,0.00,,,-99.99,0.000000,,2013-02-13 13:32:00,
2013-02-13 06:42:00,9.0,5.0,-100.00,West,262,14.0,23.0,82,0.00,,,-99.99,0.000000,,2013-02-13 13:42:00,
2013-02-13 06:51:00,9.0,5.0,-100.00,West,262,14.0,23.0,82,0.00,,,-99.99,0.000000,,2013-02-13 13:51:00,
2013-02-13 06:52:00,10.0,6.0,-100.00,WSW,256,13.0,26.0,82,0.00,,,0.00,0.000000,,2013-02-13 13:52:00,
2013-02-13 07:11:00,10.0,6.0,-100.00,WSW,256,13.0,26.0,82,0.00,,,0.00,0.000000,,2013-02-13 14:11:00,
2013-02-13 07:21:00,10.0,6.0,-100.00,WSW,256,13.0,26.0,82,0.00,,,0.00,0.000000,,2013-02-13 14:21:00,
2013-02-13 07:32:00,10.0,6.0,-100.00,WSW,256,13.0,26.0,82,0.00,,,0.00,0.000000,,2013-02-13 14:32:00,
2013-02-13 07:42:00,10.0,6.0,-100.00,WSW,256,13.0,26.0,82,0.00,,,0.00,0.000000,,2013-02-13 14:42:00,
2013-02-13 08:11:00,12.0,7.0,-100.00,WSW,248,15.0,23.0,81,0.00,,,0.00,18.000000,,2013-02-13 15:11:00,
2013-02-13 08:21:00,12.0,7.0,-100.00,WSW,248,15.0,23.0,81,0.00,,,0.00,18.000000,,2013-02-13 15:21:00,
2013-02-13 08:32:00,12.0,7.0,-100.00,WSW,248,15.0,23.0,81,0.00,,,0.00,18.000000,,2013-02-13 15:32:00,
2013-02-13 08:42:00,12.0,7.0,-100.00,WSW,248,15.0,23.0,81,0.00,,,0.00,18.000000,,2013-02-13 15:42:00,
2013-02-13 08:51:00,12.0,7.0,-100.00,WSW,248,15.0,23.0,81,0.00,,,0.00,18.000000,,2013-02-13 15:51:00,
2013-02-13 09:11:00,14.0,10.0,-100.00,WSW,254,15.0,31.0,82,0.00,,,0.00,80.000000,,2013-02-13 16:11:00,
2013-02-13 09:21:00,14.0,10.0,-100.00,WSW,254,15.0,31.0,82,0.00,,,0.00,80.000000,,2013-02-13 16:21:00,
2013-02-13 09:32:00,14.0,10.0,-100.00,WSW,254,15.0,31.0,82,0.00,,,0.00,80.000000,,2013-02-13 16:32:00,
2013-02-13 09:42:00,14.0,10.0,-100.00,WSW,254,15.0,31.0,82,0.00,,,0.00,80.000000,,2013-02-13 16:42:00,
2013-02-13 09:51:00,14.0,10.0,-100.00,WSW,254,15.0,31.0,82,0.00,,,0.00,80.000000,,2013-02-13 16:51:00,
2013-02-13 09:52:00,15.0,10.0,-100.00,West,260,15.0,26.0,80,0.00,,,0.00,146.000000,,2013-02-13 16:52:00,
2013-02-13 10:11:00,15.0,10.0,-100.00,West,260,15.0,26.0,80,0.00,,,0.00,146.000000,,2013-02-13 17:11:00,
2013-02-13 10:21:00,15.0,10.0,-100.00,West,260,15.0,26.0,80,0.00,,,0.00,146.000000,,2013-02-13 17:21:00,
2013-02-13 10:32:00,15.0,10.0,-100.00,West,260,15.0,26.0,80,0.00,,,0.00,146.000000,,2013-02-13 17:32:00,
2013-02-13 10:42:00,15.0,10.0,-100.00,West,260,15.0,26.0,80,0.00,,,0.00,146.000000,,2013-02-13 17:42:00,
2013-02-13 10:52:00,20.0,13.0,-100.00,WSW,255,14.0,23.0,73,0.00,,,0.00,306.000000,,2013-02-13 17:52:00,
2013-02-13 11:23:00,20.0,13.0,-100.00,WSW,255,14.0,23.0,73,0.00,,,0.00,306.000000,,2013-02-13 18:23:00,
2013-02-13 11:32:00,20.0,13.0,-100.00,WSW,255,14.0,23.0,73,0.00,,,0.00,306.000000,,2013-02-13 18:32:00,
2013-02-13 11:42:00,20.0,13.0,-100.00,WSW,255,14.0,23.0,73,0.00,,,0.00,306.000000,,2013-02-13 18:42:00,
2013-02-13 12:11:00,22.0,13.0,-100.00,West,261,19.0,32.0,69,0.01,,,0.01,706.000000,,2013-02-13 19:11:00,
2013-02-13 12:21:00,22.0,13.0,-100.00,West,261,19.0,32.0,69,0.01,,,0.01,706.000000,,2013-02-13 19:21:00,
2013-02-13 12:32:00,22.0,13.0,-100.00,West,261,19.0,32.0,69,0.01,,,0.01,706.000000,,2013-02-13 19:32:00,
2013-02-13 12:42:00,22.0,13.0,-100.00,West,261,19.0,32.0,69,0.01,,,0.01,706.000000,,2013-02-13 19:42:00,
2013-02-13 12:51:00,22.0,13.0,-100.00,West,261,19.0,32.0,69,0.01,,,0.01,706.000000,,2013-02-13 19:51:00,
2013-02-13 12:52:00,21.0,13.0,-100.00,West,276,22.0,32.0,72,0.00,,,0.01,630.000000,,2013-02-13 19:52:00,
2013-02-13 13:21:00,21.0,13.0,-100.00,West,276,22.0,32.0,72,0.00,,,0.01,630.000000,,2013-02-13 20:21:00,
2013-02-13 13:31:00,21.0,13.0,-100.00,West,276,22.0,32.0,72,0.00,,,0.01,630.000000,,2013-02-13 20:31:00,
2013-02-13 13:42:00,21.0,13.0,-100.00,West,276,22.0,32.0,72,0.00,,,0.01,630.000000,,2013-02-13 20:42:00,
2013-02-13 13:52:00,22.0,13.0,-100.00,WNW,282,21.0,31.0,69,0.00,,,0.01,544.000000,,2013-02-13 20:52:00,
2013-02-13 14:21:00,22.0,13.0,-100.00,WNW,282,21.0,31.0,69,0.00,,,0.01,544.000000,,2013-02-13 21:21:00,
2013-02-13 14:31:00,22.0,13.0,-100.00,WNW,282,21.0,31.0,69,0.00,,,0.01,544.000000,,2013-02-13 21:31:00,
2013-02-13 14:42:00,22.0,13.0,-100.00,WNW,282,21.0,31.0,69,0.00,,,0.01,544.000000,,2013-02-13 21:42:00,
2013-02-13 15:11:00,22.0,13.0,-100.00,WNW,283,24.0,38.0,68,0.00,,,0.01,581.000000,,2013-02-13 22:11:00,
2013-02-13 15:21:00,22.0,13.0,-100.00,WNW,283,24.0,38.0,68,0.00,,,0.01,581.000000,,2013-02-13 22:21:00,
2013-02-13 15:31:00,22.0,13.0,-100.00,WNW,283,24.0,38.0,68,0.00,,,0.01,581.000000,,2013-02-13 22:31:00,
2013-02-13 15:42:00,22.0,13.0,-100.00,WNW,283,24.0,38.0,68,0.00,,,0.01,581.000000,,2013-02-13 22:42:00,
2013-02-13 15:51:00,22.0,13.0,-100.00,WNW,283,24.0,38.0,68,0.00,,,0.01,581.000000,,2013-02-13 22:51:00,
2013-02-13 15:52:00,21.0,13.0,-100.00,West,277,21.0,33.0,72,0.00,,,0.01,294.000000,,2013-02-13 22:52:00,
2013-02-13 16:11:00,21.0,13.0,-100.00,West,277,21.0,33.0,72,0.00,,,0.01,294.000000,,2013-02-13 23:11:00,
2013-02-13 16:21:00,21.0,13.0,-100.00,West,277,21.0,33.0,72,0.00,,,0.01,294.000000,,2013-02-13 23:21:00,
2013-02-13 16:32:00,21.0,13.0,-100.00,West,277,21.0,33.0,72,0.00,,,0.01,294.000000,,2013-02-13 23:32:00,
2013-02-13 16:42:00,21.0,13.0,-100.00,West,277,21.0,33.0,72,0.00,,,0.01,294.000000,,2013-02-13 23:42:00,
2013-02-13 17:21:00,19.0,13.0,-100.00,West,274,22.0,35.0,78,0.00,,,0.01,136.000000,,2013-02-14 00:21:00,
2013-02-13 17:32:00,19.0,13.0,-100.00,West,274,22.0,35.0,78,0.00,,,0.01,136.000000,,2013-02-14 00:32:00,
2013-02-13 17:42:00,19.0,13.0,-100.00,West,274,22.0,35.0,78,0.00,,,0.01,136.000000,,2013-02-14 00:42:00,
2013-02-13 17:51:00,19.0,13.0,-100.00,West,274,22.0,35.0,78,0.00,,,0.01,136.000000,,2013-02-14 00:51:00,
2013-02-13 18:11:00,18.0,15.0,-100.00,West,271,22.0,36.0,86,0.00,,,0.01,22.000000,,2013-02-14 01:11:00,
2013-02-13 18:21:00,18.0,15.0,-100.00,West,271,22.0,36.0,86,0.00,,,0.01,22.000000,,2013-02-14 01:21:00,
2013-02-13 18:32:00,18.0,15.0,-100.00,West,271,22.0,36.0,86,0.00,,,0.01,22.000000,,2013-02-14 01:32:00,
2013-02-13 18:41:00,18.0,15.0,-100.00,West,271,22.0,36.0,86,0.00,,,0.01,22.000000,,2013-02-14 01:41:00,
2013-02-13 18:51:00,18.0,15.0,-100.00,West,271,22.0,36.0,86,0.00,,,0.01,22.000000,,2013-02-14 01:51:00,
2013-02-13 19:21:00,17.0,13.0,-100.00,West,273,18.0,33.0,85,0.00,,,0.01,0.000000,,2013-02-14 02:21:00,
2013-02-13 19:31:00,17.0,13.0,-100.00,West,273,18.0,33.0,85,0.00,,,0.01,0.000000,,2013-02-14 02:31:00,
2013-02-13 19:41:00,17.0,13.0,-100.00,West,273,18.0,33.0,85,0.00,,,0.01,0.000000,,2013-02-14 02:41:00,
2013-02-13 19:51:00,17.0,13.0,-100.00,West,273,18.0,33.0,85,0.00,,,0.01,0.000000,,2013-02-14 02:51:00,
2013-02-13 20:22:00,17.0,14.0,-100.00,West,265,17.0,31.0,86,0.00,,,0.01,0.000000,,2013-02-14 03:22:00,
2013-02-13 20:31:00,17.0,14.0,-100.00,West,265,17.0,31.0,86,0.00,,,0.01,0.000000,,2013-02-14 03:31:00,
2013-02-13 20:42:00,17.0,14.0,-100.00,West,265,17.0,31.0,86,0.00,,,0.01,0.000000,,2013-02-14 03:42:00,
2013-02-13 20:51:00,17.0,14.0,-100.00,West,265,17.0,31.0,86,0.00,,,0.01,0.000000,,2013-02-14 03:51:00,
2013-02-13 21:12:00,18.0,15.0,-100.00,West,266,18.0,28.0,87,0.00,,,0.01,0.000000,,2013-02-14 04:12:00,
2013-02-13 21:21:00,18.0,15.0,-100.00,West,266,18.0,28.0,87,0.00,,,0.01,0.000000,,2013-02-14 04:21:00,
2013-02-13 21:31:00,18.0,15.0,-100.00,West,266,18.0,28.0,87,0.00,,,0.01,0.000000,,2013-02-14 04:31:00,
2013-02-13 21:41:00,18.0,15.0,-100.00,West,266,18.0,28.0,87,0.00,,,0.01,0.000000,,2013-02-14 04:41:00,
2013-02-13 21:51:00,18.0,15.0,-100.00,West,266,18.0,28.0,87,0.00,,,0.01,0.000000,,2013-02-14 04:51:00,
2013-02-13 21:52:00,17.0,14.0,-100.00,West,263,17.0,32.0,87,0.00,,,0.01,0.000000,,2013-02-14 04:52:00,
2013-02-13 22:11:00,17.0,14.0,-100.00,West,263,17.0,32.0,87,0.00,,,0.01,0.000000,,2013-02-14 05:11:00,
2013-02-13 22:22:00,17.0,14.0,-100.00,West,263,17.0,32.0,87,0.00,,,0.01,0.000000,,2013-02-14 05:22:00,
2013-02-13 22:32:00,17.0,14.0,-100.00,West,263,17.0,32.0,87,0.00,,,0.01,0.000000,,2013-02-14 05:32:00,
2013-02-13 22:42:00,17.0,14.0,-100.00,West,263,17.0,32.0,87,0.00,,,0.01,0.000000,,2013-02-14 05:42:00,
2013-02-13 23:11:00,18.0,14.0,-100.00,West,263,20.0,33.0,85,0.00,,,0.01,0.000000,,2013-02-14 06:11:00,
2013-02-13 23:21:00,18.0,14.0,-100.00,West,263,20.0,33.0,85,0.00,,,0.01,0.000000,,2013-02-14 06:21:00,
2013-02-13 23:32:00,18.0,14.0,-100.00,West,263,20.0,33.0,85,0.00,,,0.01,0.000000,,2013-02-14 06:32:00,
2013-02-13 23:42:00,18.0,14.0,-100.00,West,263,20.0,33.0,85,0.00,,,0.01,0.000000,,2013-02-14 06:42:00,
2013-02-13 23:51:00,18.0,14.0,-100.00,West,263,20.0,33.0,85,0.00,,,0.01,0.000000,,2013-02-14 06:51:00,